createdAt,value
2019-02-07T00:00:51.869Z,12.45
2019-02-07T00:03:20.971Z,11.75
2019-02-07T00:05:50.155Z,15.70
2019-02-07T00:08:19.877Z,14.33
2019-02-07T00:10:49.232Z,12.85
2019-02-07T00:13:18.906Z,9.68
2019-02-07T00:15:50.190Z,13.43
2019-02-07T00:18:21.043Z,14.40
2019-02-07T00:20:51.244Z,12.10
2019-02-07T00:23:21.650Z,10.38
2019-02-07T00:25:51.938Z,15.10
2019-02-07T00:28:21.870Z,15.25
2019-02-07T00:30:52.247Z,17.45
2019-02-07T00:33:23.779Z,12.70
2019-02-07T00:35:57.128Z,13.70
2019-02-07T00:38:28.624Z,12.65
2019-02-07T00:40:59.052Z,13.85
2019-02-07T00:43:29.074Z,11.68
2019-02-07T00:45:58.873Z,10.65
2019-02-07T00:48:29.067Z,14.28
2019-02-07T00:50:59.055Z,15.65
2019-02-07T00:53:29.235Z,15.03
2019-02-07T00:55:58.692Z,14.28
2019-02-07T00:58:28.002Z,12.28
2019-02-07T01:00:57.728Z,14.13
2019-02-07T01:03:27.405Z,14.13
2019-02-07T01:05:56.575Z,12.23
2019-02-07T01:08:25.693Z,17.27
2019-02-07T01:10:54.449Z,17.82
2019-02-07T01:13:23.178Z,13.72
2019-02-07T01:15:53.862Z,13.53
2019-02-07T01:18:22.524Z,16.87
2019-02-07T01:20:51.396Z,14.20
2019-02-07T01:23:22.294Z,15.10
2019-02-07T01:25:52.252Z,16.80
2019-02-07T01:28:25.051Z,14.53
2019-02-07T01:30:56.318Z,19.10
2019-02-07T01:33:25.574Z,14.53
2019-02-07T01:35:54.865Z,16.42
2019-02-07T01:38:24.361Z,13.98
2019-02-07T01:40:53.633Z,13.85
2019-02-07T01:43:22.943Z,21.40
2019-02-07T01:45:57.648Z,19.35
2019-02-07T01:48:27.700Z,20.62
2019-02-07T01:50:57.195Z,15.83
2019-02-07T01:53:26.345Z,16.00
2019-02-07T01:55:56.567Z,16.15
2019-02-07T01:58:26.127Z,18.48
2019-02-07T02:00:56.582Z,17.87
2019-02-07T02:03:27.956Z,14.68
2019-02-07T02:06:03.168Z,19.52
2019-02-07T02:08:32.072Z,21.85
2019-02-07T02:11:02.485Z,26.30
2019-02-07T02:13:31.997Z,63.17
2019-02-07T02:16:01.267Z,117.72
2019-02-07T02:18:32.897Z,51.65
2019-02-07T02:21:02.090Z,61.65
2019-02-07T02:23:32.276Z,60.63
2019-02-07T02:26:05.872Z,67.67
2019-02-07T02:28:35.936Z,60.92
2019-02-07T02:31:06.434Z,100.65
2019-02-07T02:33:36.257Z,95.28
2019-02-07T02:36:05.447Z,62.83
2019-02-07T02:38:35.683Z,86.80
2019-02-07T02:41:04.730Z,44.70
2019-02-07T02:43:34.176Z,83.05
2019-02-07T02:46:13.460Z,73.12
2019-02-07T02:48:45.887Z,57.88
2019-02-07T02:51:15.391Z,68.22
2019-02-07T02:53:45.059Z,29.52
2019-02-07T02:56:14.539Z,50.90
2019-02-07T02:58:46.328Z,47.05
2019-02-07T03:01:32.537Z,37.88
2019-02-07T03:04:07.731Z,25.72
2019-02-07T03:06:44.489Z,22.27
2019-02-07T03:09:21.243Z,26.20
2019-02-07T03:12:08.404Z,36.42
2019-02-07T03:14:41.388Z,51.13
2019-02-07T03:17:12.108Z,34.25
2019-02-07T03:19:54.250Z,39.03
2019-02-07T03:22:28.272Z,25.15
2019-02-07T03:25:09.993Z,30.08
2019-02-07T03:27:56.633Z,27.13
2019-02-07T03:30:46.050Z,31.62
2019-02-07T03:33:20.892Z,34.13
2019-02-07T03:35:54.906Z,76.92
2019-02-07T03:38:26.457Z,35.73
2019-02-07T03:41:02.808Z,30.48
2019-02-07T03:43:36.417Z,33.48
2019-02-07T03:46:13.019Z,33.78
2019-02-07T03:48:48.835Z,36.77
2019-02-07T03:51:19.967Z,55.98
2019-02-07T03:54:02.269Z,65.47
2019-02-07T03:56:45.588Z,67.30
2019-02-07T03:59:33.935Z,84.55
2019-02-07T04:02:20.878Z,35.55
2019-02-07T04:04:54.280Z,30.25
2019-02-07T04:07:30.812Z,26.20
2019-02-07T04:10:09.688Z,28.55
2019-02-07T04:12:52.144Z,23.95
2019-02-07T04:15:23.727Z,19.45
2019-02-07T04:17:55.790Z,36.93
2019-02-07T04:20:38.561Z,30.97
2019-02-07T04:23:27.565Z,27.42
2019-02-07T04:26:11.256Z,28.83
2019-02-07T04:28:48.485Z,30.90
2019-02-07T04:31:22.326Z,30.50
2019-02-07T04:34:04.690Z,30.82
2019-02-07T04:36:53.655Z,25.27
2019-02-07T04:39:24.486Z,26.42
2019-02-07T04:42:01.690Z,23.77
2019-02-07T04:44:32.470Z,30.15
2019-02-07T04:47:06.390Z,28.52
2019-02-07T04:49:43.180Z,27.80
2019-02-07T04:52:25.755Z,23.35
2019-02-07T04:54:56.058Z,27.22
2019-02-07T04:57:35.835Z,29.45
2019-02-07T05:00:15.621Z,34.25
2019-02-07T05:02:54.860Z,21.75
2019-02-07T05:05:28.335Z,23.92
2019-02-07T05:08:02.044Z,28.62
2019-02-07T05:10:33.160Z,27.55
2019-02-07T05:13:07.752Z,26.27
2019-02-07T05:15:55.387Z,29.50
2019-02-07T05:18:32.625Z,24.10
2019-02-07T05:21:06.720Z,22.05
2019-02-07T05:23:37.464Z,27.45
2019-02-07T05:26:14.453Z,31.82
2019-02-07T05:28:57.433Z,26.40
2019-02-07T05:31:44.432Z,27.07
2019-02-07T05:34:33.661Z,24.47
2019-02-07T05:37:04.501Z,25.77
2019-02-07T05:39:42.115Z,22.98
2019-02-07T05:42:15.233Z,21.17
2019-02-07T05:45:00.547Z,27.80
2019-02-07T05:47:33.773Z,22.85
2019-02-07T05:50:22.444Z,24.67
2019-02-07T05:52:59.657Z,23.25
2019-02-07T05:55:43.842Z,28.50
2019-02-07T05:58:14.785Z,20.40
2019-02-07T06:00:46.608Z,23.60
2019-02-07T06:03:26.606Z,20.40
2019-02-07T06:05:57.184Z,24.23
2019-02-07T06:08:28.100Z,22.45
2019-02-07T06:11:05.684Z,19.92
2019-02-07T06:13:39.773Z,18.77
2019-02-07T06:16:10.537Z,16.02
2019-02-07T06:18:57.328Z,15.83
2019-02-07T06:21:28.817Z,16.45
2019-02-07T06:24:14.075Z,16.60
2019-02-07T06:26:50.176Z,21.60
2019-02-07T06:29:23.081Z,19.17
2019-02-07T06:32:02.726Z,14.40
2019-02-07T06:34:33.462Z,14.78
2019-02-07T06:37:20.732Z,15.83
2019-02-07T06:40:08.163Z,16.52
2019-02-07T06:42:41.456Z,16.55
2019-02-07T06:45:16.309Z,18.23
2019-02-07T06:48:05.529Z,19.48
2019-02-07T06:50:45.691Z,16.12
2019-02-07T06:53:25.666Z,20.45
2019-02-07T06:55:59.284Z,22.50
2019-02-07T06:58:39.486Z,29.37
2019-02-07T07:01:12.797Z,23.42
2019-02-07T07:03:58.871Z,18.87
2019-02-07T07:06:29.279Z,16.23
2019-02-07T07:09:02.122Z,18.67
2019-02-07T07:11:47.415Z,16.80
2019-02-07T07:14:29.722Z,23.25
2019-02-07T07:17:00.664Z,15.58
2019-02-07T07:19:31.781Z,15.83
2019-02-07T07:22:21.152Z,16.32
2019-02-07T07:25:08.564Z,17.02
2019-02-07T07:27:39.574Z,15.90
2019-02-07T07:30:18.731Z,14.68
2019-02-07T07:32:52.426Z,18.50
2019-02-07T07:35:35.731Z,17.10
2019-02-07T07:38:16.322Z,14.50
2019-02-07T07:40:47.381Z,14.50
2019-02-07T07:43:35.215Z,16.55
2019-02-07T07:46:05.876Z,17.73
2019-02-07T07:48:51.618Z,15.45
2019-02-07T07:51:22.594Z,18.85
2019-02-07T07:54:08.539Z,16.73
2019-02-07T07:56:54.075Z,14.45
2019-02-07T07:59:42.555Z,17.35
2019-02-07T08:02:20.039Z,15.35
2019-02-07T08:04:51.324Z,14.93
2019-02-07T08:07:22.557Z,15.70
2019-02-07T08:09:56.468Z,17.73
2019-02-07T08:12:42.669Z,16.32
2019-02-07T08:15:20.648Z,17.73
2019-02-07T08:17:54.166Z,16.20
2019-02-07T08:20:42.186Z,17.85
2019-02-07T08:23:19.110Z,16.87
2019-02-07T08:25:52.770Z,18.95
2019-02-07T08:28:40.593Z,14.40
2019-02-07T08:31:18.096Z,16.55
2019-02-07T08:33:48.389Z,18.45
2019-02-07T08:36:18.695Z,17.12
2019-02-07T08:39:03.991Z,17.40
2019-02-07T08:41:43.552Z,15.50
2019-02-07T08:44:30.170Z,15.03
2019-02-07T08:47:10.655Z,14.90
2019-02-07T08:49:53.382Z,13.55
2019-02-07T08:52:40.492Z,16.80
2019-02-07T08:55:11.935Z,16.62
2019-02-07T08:57:42.930Z,14.40
2019-02-07T09:00:30.195Z,15.90
2019-02-07T09:03:10.513Z,14.93
2019-02-07T09:05:57.645Z,17.12
2019-02-07T09:08:28.383Z,14.83
2019-02-07T09:11:05.588Z,14.00
2019-02-07T09:13:55.225Z,15.03
2019-02-07T09:16:35.074Z,17.30
2019-02-07T09:19:14.990Z,15.72
2019-02-07T09:22:01.580Z,14.60
2019-02-07T09:24:32.639Z,18.60
2019-02-07T09:27:03.085Z,18.20
2019-02-07T09:29:34.229Z,18.60
2019-02-07T09:32:29.115Z,15.65
2019-02-07T09:34:59.911Z,18.65
2019-02-07T09:37:46.060Z,16.45
2019-02-07T09:40:35.935Z,20.95
2019-02-07T09:43:15.464Z,15.85
2019-02-07T09:46:03.600Z,17.27
2019-02-07T09:48:37.261Z,16.27
2019-02-07T09:51:11.113Z,19.35
2019-02-07T09:53:48.907Z,18.00
2019-02-07T09:56:19.494Z,18.20
2019-02-07T09:59:03.424Z,18.15
2019-02-07T10:01:34.481Z,16.25
2019-02-07T10:04:14.805Z,20.75
2019-02-07T10:07:03.883Z,21.20
2019-02-07T10:09:38.270Z,16.85
2019-02-07T10:12:12.780Z,14.45
2019-02-07T10:14:43.787Z,16.20
2019-02-07T10:17:29.883Z,16.73
2019-02-07T10:20:01.015Z,17.12
2019-02-07T10:22:32.289Z,15.85
2019-02-07T10:25:12.345Z,16.70
2019-02-07T10:27:43.722Z,15.35
2019-02-07T10:30:17.104Z,16.65
2019-02-07T10:32:51.614Z,13.78
2019-02-07T10:35:34.860Z,13.50
2019-02-07T10:38:22.687Z,13.13
2019-02-07T10:40:59.895Z,12.10
2019-02-07T10:43:39.746Z,12.68
2019-02-07T10:46:27.203Z,13.60
2019-02-07T10:48:57.456Z,12.33
2019-02-07T10:51:30.923Z,14.63
2019-02-07T10:54:17.282Z,15.05
2019-02-07T10:57:03.864Z,15.00
2019-02-07T10:59:40.620Z,12.45
2019-02-07T11:02:11.734Z,12.25
2019-02-07T11:04:59.020Z,11.75
2019-02-07T11:07:36.198Z,15.25
2019-02-07T11:10:09.870Z,13.50
2019-02-07T11:12:40.708Z,17.07
2019-02-07T11:15:17.637Z,14.45
2019-02-07T11:18:07.673Z,14.65
2019-02-07T11:20:44.751Z,13.83
2019-02-07T11:23:28.899Z,12.25
2019-02-07T11:26:05.673Z,14.23
2019-02-07T11:28:36.442Z,12.93
2019-02-07T11:31:07.264Z,11.15
2019-02-07T11:33:44.027Z,12.58
2019-02-07T11:36:20.707Z,13.03
2019-02-07T11:39:08.477Z,11.73
2019-02-07T11:41:48.450Z,17.92
2019-02-07T11:44:19.351Z,12.70
2019-02-07T11:46:51.649Z,10.78
2019-02-07T11:49:31.353Z,15.65
2019-02-07T11:52:08.504Z,11.20
2019-02-07T11:54:40.080Z,12.73
2019-02-07T11:57:26.153Z,13.70
2019-02-07T12:00:14.249Z,16.25
2019-02-07T12:02:56.867Z,11.20
2019-02-07T12:05:29.271Z,15.20
2019-02-07T12:08:06.263Z,13.43
2019-02-07T12:10:39.783Z,11.97
2019-02-07T12:13:10.515Z,13.78
2019-02-07T12:15:43.950Z,11.20
2019-02-07T12:18:15.149Z,13.35
2019-02-07T12:21:01.729Z,11.83
2019-02-07T12:23:41.543Z,12.88
2019-02-07T12:26:21.222Z,10.30
2019-02-07T12:29:10.597Z,9.73
2019-02-07T12:31:41.440Z,12.53
2019-02-07T12:34:19.523Z,13.58
2019-02-07T12:36:50.612Z,11.38
2019-02-07T12:39:40.343Z,17.17
2019-02-07T12:42:29.917Z,13.15
2019-02-07T12:45:04.177Z,13.38
2019-02-07T12:47:37.817Z,11.38
2019-02-07T12:50:23.246Z,12.15
2019-02-07T12:52:57.500Z,10.15
2019-02-07T12:55:37.584Z,9.70
2019-02-07T12:58:12.442Z,13.93
2019-02-07T13:01:01.292Z,9.38
2019-02-07T13:03:40.730Z,12.15
2019-02-07T13:06:12.075Z,12.00
2019-02-07T13:08:49.795Z,12.00
2019-02-07T13:11:21.203Z,10.55
2019-02-07T13:14:08.595Z,11.85
2019-02-07T13:16:39.347Z,14.63
2019-02-07T13:19:26.702Z,13.48
2019-02-07T13:21:57.454Z,8.85
2019-02-07T13:24:31.623Z,9.20
2019-02-07T13:27:02.649Z,9.75
2019-02-07T13:29:36.995Z,11.45
2019-02-07T13:32:24.093Z,14.87
2019-02-07T13:35:11.571Z,11.35
2019-02-07T13:37:59.366Z,12.03
2019-02-07T13:40:46.901Z,10.68
2019-02-07T13:43:32.504Z,12.47
2019-02-07T13:46:11.854Z,11.73
2019-02-07T13:48:42.729Z,9.75
2019-02-07T13:51:16.352Z,9.50
2019-02-07T13:53:47.256Z,12.15
2019-02-07T13:56:35.170Z,12.37
2019-02-07T13:59:05.945Z,10.98
2019-02-07T14:01:55.663Z,9.80
2019-02-07T14:04:32.787Z,11.97
2019-02-07T14:07:19.815Z,10.63
2019-02-07T14:09:50.613Z,8.98
2019-02-07T14:12:27.331Z,9.23
2019-02-07T14:14:58.408Z,10.03
2019-02-07T14:17:38.266Z,12.45
2019-02-07T14:20:10.886Z,11.33
2019-02-07T14:22:41.759Z,7.30
2019-02-07T14:25:28.351Z,11.63
2019-02-07T14:28:11.228Z,10.20
2019-02-07T14:30:42.277Z,9.98
2019-02-07T14:33:31.222Z,9.03
2019-02-07T14:36:07.295Z,10.82
2019-02-07T14:38:55.320Z,10.58
2019-02-07T14:41:29.298Z,12.07
2019-02-07T14:44:03.074Z,11.55
2019-02-07T14:46:33.957Z,13.05
2019-02-07T14:49:03.303Z,11.08
2019-02-07T14:51:33.485Z,8.93
2019-02-07T14:54:02.735Z,8.75
2019-02-07T14:56:32.623Z,11.57
2019-02-07T14:59:01.868Z,9.68
2019-02-07T15:01:31.207Z,12.25
2019-02-07T15:04:00.673Z,7.60
2019-02-07T15:06:30.143Z,10.18
2019-02-07T15:08:59.715Z,10.85
2019-02-07T15:11:29.445Z,13.05
2019-02-07T15:13:58.707Z,10.03
2019-02-07T15:16:27.509Z,9.63
2019-02-07T15:18:56.260Z,9.95
2019-02-07T15:21:25.108Z,8.95
2019-02-07T15:23:53.708Z,12.13
2019-02-07T15:26:22.837Z,10.08
2019-02-07T15:28:53.381Z,10.13
2019-02-07T15:31:22.702Z,10.55
2019-02-07T15:33:53.093Z,9.80
2019-02-07T15:36:22.339Z,12.18
2019-02-07T15:38:51.648Z,12.98
2019-02-07T15:41:22.545Z,11.38
2019-02-07T15:43:51.714Z,9.85
2019-02-07T15:46:21.961Z,11.18
2019-02-07T15:48:51.178Z,10.35
2019-02-07T15:51:20.596Z,10.65
2019-02-07T15:53:49.917Z,9.95
2019-02-07T15:56:19.494Z,9.88
2019-02-07T15:58:50.375Z,10.20
2019-02-07T16:01:21.793Z,13.43
2019-02-07T16:03:52.092Z,12.80
2019-02-07T16:06:21.348Z,8.88
2019-02-07T16:08:50.569Z,9.53
2019-02-07T16:11:19.989Z,11.08
2019-02-07T16:13:50.322Z,10.38
2019-02-07T16:16:19.746Z,10.35
2019-02-07T16:18:49.013Z,8.88
2019-02-07T16:21:18.527Z,12.03
2019-02-07T16:23:47.992Z,8.73
2019-02-07T16:26:17.427Z,11.85
2019-02-07T16:28:46.802Z,11.15
2019-02-07T16:31:16.092Z,12.63
2019-02-07T16:33:45.398Z,10.95
2019-02-07T16:36:14.937Z,13.48
2019-02-07T16:38:44.117Z,11.38
2019-02-07T16:41:13.293Z,14.93
2019-02-07T16:43:42.774Z,14.45
2019-02-07T16:46:11.952Z,12.18
2019-02-07T16:48:41.858Z,11.45
2019-02-07T16:51:10.492Z,10.43
2019-02-07T16:53:39.673Z,12.65
2019-02-07T16:56:08.767Z,16.70
2019-02-07T16:58:37.957Z,8.60
2019-02-07T17:01:08.848Z,12.63
2019-02-07T17:03:39.008Z,8.05
2019-02-07T17:06:08.218Z,6.20
2019-02-07T17:08:37.623Z,9.23
2019-02-07T17:11:07.352Z,9.23
2019-02-07T17:13:36.855Z,10.95
2019-02-07T17:16:06.761Z,9.08
2019-02-07T17:18:36.108Z,8.00
2019-02-07T17:21:12.468Z,7.80
2019-02-07T17:23:37.038Z,8.10
2019-02-07T17:26:06.695Z,10.68
2019-02-07T17:28:36.010Z,8.03
2019-02-07T17:31:05.153Z,7.67
2019-02-07T17:33:34.410Z,10.43
2019-02-07T17:36:03.604Z,8.03
2019-02-07T17:38:33.134Z,8.45
2019-02-07T17:41:02.522Z,11.28
2019-02-07T17:43:31.804Z,8.90
2019-02-07T17:46:00.895Z,6.92
2019-02-07T17:48:30.425Z,6.08
2019-02-07T17:50:59.865Z,7.72
2019-02-07T17:53:29.187Z,8.00
2019-02-07T17:55:58.564Z,8.28
2019-02-07T17:58:27.901Z,7.03
2019-02-07T18:01:01.425Z,8.85
2019-02-07T18:03:30.939Z,7.42
2019-02-07T18:06:00.090Z,6.85
2019-02-07T18:08:29.903Z,7.70
2019-02-07T18:10:59.744Z,6.37
2019-02-07T18:13:29.198Z,9.93
2019-02-07T18:15:58.052Z,8.65
2019-02-07T18:18:27.103Z,6.50
2019-02-07T18:20:56.845Z,8.55
2019-02-07T18:23:26.025Z,7.60
2019-02-07T18:25:55.313Z,8.10
2019-02-07T18:28:24.834Z,7.00
2019-02-07T18:30:53.722Z,7.87
2019-02-07T18:33:22.882Z,8.25
2019-02-07T18:35:52.304Z,8.85
2019-02-07T18:38:21.987Z,10.43
2019-02-07T18:40:52.382Z,8.50
2019-02-07T18:43:21.572Z,7.62
2019-02-07T18:45:50.881Z,7.20
2019-02-07T18:48:20.331Z,9.60
2019-02-07T18:50:50.577Z,10.28
2019-02-07T18:53:20.068Z,9.90
2019-02-07T18:55:48.816Z,7.90
2019-02-07T18:58:18.412Z,5.72
2019-02-07T19:00:47.339Z,6.47
2019-02-07T19:03:16.035Z,8.05
2019-02-07T19:05:46.000Z,11.12
2019-02-07T19:08:15.604Z,6.12
2019-02-07T19:10:44.925Z,7.97
2019-02-07T19:13:14.262Z,7.72
2019-02-07T19:15:47.830Z,5.60
2019-02-07T19:18:16.677Z,9.43
2019-02-07T19:20:46.299Z,7.35
2019-02-07T19:23:15.618Z,7.90
2019-02-07T19:25:44.770Z,9.40
2019-02-07T19:28:14.146Z,7.75
2019-02-07T19:30:43.550Z,6.75
2019-02-07T19:33:12.671Z,7.97
2019-02-07T19:35:42.062Z,7.40
2019-02-07T19:38:11.297Z,7.83
2019-02-07T19:40:40.709Z,6.05
2019-02-07T19:43:09.390Z,7.45
2019-02-07T19:45:38.157Z,6.42
2019-02-07T19:48:07.892Z,6.47
2019-02-07T19:50:37.157Z,6.10
2019-02-07T19:53:06.387Z,7.45
2019-02-07T19:55:36.058Z,7.28
2019-02-07T19:58:06.661Z,6.47
2019-02-07T20:00:36.164Z,9.65
2019-02-07T20:03:05.702Z,8.30
2019-02-07T20:05:34.862Z,6.58
2019-02-07T20:08:04.393Z,8.95
2019-02-07T20:10:34.031Z,6.97
2019-02-07T20:13:03.412Z,6.70
2019-02-07T20:15:41.332Z,6.87
2019-02-07T20:18:11.422Z,6.22
2019-02-07T20:20:41.028Z,5.85
2019-02-07T20:23:10.529Z,9.60
2019-02-07T20:25:39.957Z,7.05
2019-02-07T20:28:10.055Z,8.83
2019-02-07T20:30:41.249Z,7.75
2019-02-07T20:33:10.512Z,7.60
2019-02-07T20:35:40.326Z,5.58
2019-02-07T20:38:10.004Z,6.80
2019-02-07T20:40:39.841Z,7.05
2019-02-07T20:43:09.147Z,6.78
2019-02-07T20:45:38.683Z,6.00
2019-02-07T20:48:08.243Z,6.22
2019-02-07T20:50:37.661Z,8.45
2019-02-07T20:53:09.129Z,6.17
2019-02-07T20:55:38.666Z,6.65
2019-02-07T20:58:07.980Z,7.92
2019-02-07T21:00:40.394Z,6.65
2019-02-07T21:03:10.013Z,8.30
2019-02-07T21:05:39.191Z,4.90
2019-02-07T21:08:08.167Z,7.47
2019-02-07T21:10:38.988Z,7.50
2019-02-07T21:13:08.409Z,6.58
2019-02-07T21:15:37.324Z,6.17
2019-02-07T21:18:06.307Z,7.80
2019-02-07T21:20:36.747Z,5.65
2019-02-07T21:23:06.611Z,7.85
2019-02-07T21:25:47.532Z,7.83
2019-02-07T21:28:16.980Z,5.87
2019-02-07T21:30:46.522Z,7.67
2019-02-07T21:33:16.136Z,7.60
2019-02-07T21:35:45.662Z,6.08
2019-02-07T21:38:15.148Z,7.97
2019-02-07T21:40:44.394Z,7.67
2019-02-07T21:43:14.157Z,6.90
2019-02-07T21:45:43.700Z,5.70
2019-02-07T21:48:12.720Z,4.58
2019-02-07T21:50:41.984Z,5.45
2019-02-07T21:53:11.452Z,6.60
2019-02-07T21:55:40.859Z,5.60
2019-02-07T21:58:10.359Z,6.15
2019-02-07T22:00:41.357Z,4.80
2019-02-07T22:03:11.649Z,6.65
2019-02-07T22:05:41.128Z,6.12
2019-02-07T22:08:10.319Z,5.35
2019-02-07T22:10:40.948Z,6.08
2019-02-07T22:13:11.092Z,7.65
2019-02-07T22:15:40.425Z,4.58
2019-02-07T22:18:09.774Z,14.28
2019-02-07T22:20:39.349Z,9.63
2019-02-07T22:23:08.437Z,9.38
2019-02-07T22:25:37.977Z,7.60
2019-02-07T22:28:08.044Z,5.75
2019-02-07T22:30:37.739Z,4.92
2019-02-07T22:33:07.887Z,6.67
2019-02-07T22:35:37.207Z,6.40
2019-02-07T22:38:06.891Z,10.32
2019-02-07T22:40:37.166Z,7.60
2019-02-07T22:43:07.167Z,5.40
2019-02-07T22:45:36.903Z,5.45
2019-02-07T22:48:06.861Z,5.90
2019-02-07T22:50:37.283Z,6.50
2019-02-07T22:53:07.108Z,4.95
2019-02-07T22:55:36.919Z,7.08
2019-02-07T22:58:06.606Z,6.30
2019-02-07T23:00:45.664Z,7.50
2019-02-07T23:03:21.943Z,6.55
2019-02-07T23:05:51.306Z,6.33
2019-02-07T23:08:20.593Z,5.85
2019-02-07T23:10:49.697Z,5.55
2019-02-07T23:13:18.817Z,5.40
2019-02-07T23:15:48.130Z,7.30
2019-02-07T23:18:17.772Z,5.95
2019-02-07T23:20:46.551Z,5.10
2019-02-07T23:23:15.274Z,6.20
2019-02-07T23:25:44.035Z,8.10
2019-02-07T23:28:13.230Z,7.35
2019-02-07T23:30:42.020Z,6.97
2019-02-07T23:33:11.185Z,4.45
2019-02-07T23:35:40.452Z,6.22
2019-02-07T23:38:09.669Z,6.08
2019-02-07T23:40:39.294Z,6.33
2019-02-07T23:43:08.682Z,7.72
2019-02-07T23:45:38.051Z,5.55
2019-02-07T23:48:07.427Z,5.37
2019-02-07T23:50:36.670Z,5.42
2019-02-07T23:53:14.096Z,8.00
2019-02-07T23:55:36.847Z,5.80
2019-02-07T23:58:06.093Z,5.95
